createdAt,value
2024-05-09T01:19:39.514Z,4.40
2024-05-09T01:38:38.071Z,4.28
2024-05-09T01:53:25.240Z,7.82
2024-05-09T02:08:29.287Z,3.65
2024-05-09T02:11:00.628Z,3.80
2024-05-09T02:24:44.506Z,3.17
2024-05-09T02:27:16.330Z,3.25
2024-05-09T02:29:48.161Z,4.07
2024-05-09T02:44:03.438Z,4.30
2024-05-09T02:46:36.898Z,4.35
2024-05-09T02:49:07.570Z,4.75
2024-05-09T02:51:37.875Z,5.43
2024-05-09T02:54:09.452Z,5.57
2024-05-09T02:56:40.443Z,5.15
2024-05-09T02:59:11.057Z,9.13
2024-05-09T03:01:41.356Z,7.35
2024-05-09T03:04:12.042Z,6.13
2024-05-09T03:06:45.631Z,4.85
2024-05-09T03:09:16.097Z,5.70
2024-05-09T03:11:47.581Z,3.90
2024-05-09T03:14:21.755Z,6.95
2024-05-09T03:16:52.551Z,6.07
2024-05-09T03:19:23.258Z,7.13
2024-05-09T03:21:53.947Z,4.55
2024-05-09T03:24:24.519Z,4.60
2024-05-09T03:26:54.874Z,3.47
2024-05-09T03:29:25.626Z,5.63
2024-05-09T03:31:57.166Z,4.30
2024-05-09T03:34:27.697Z,4.85
2024-05-09T03:36:58.400Z,5.90
2024-05-09T03:39:28.926Z,4.22
2024-05-09T03:41:59.525Z,5.00
2024-05-09T03:44:30.122Z,4.45
2024-05-09T03:47:00.776Z,5.63
2024-05-09T03:49:31.396Z,4.38
2024-05-09T03:52:06.668Z,3.47
2024-05-09T03:54:46.685Z,4.72
2024-05-09T03:57:17.272Z,5.80
2024-05-09T03:59:47.921Z,5.22
2024-05-09T04:02:18.556Z,4.43
2024-05-09T04:04:49.411Z,5.72
2024-05-09T04:07:19.960Z,5.07
2024-05-09T04:09:50.156Z,6.27
2024-05-09T04:12:21.390Z,4.80
2024-05-09T04:14:52.103Z,4.93
2024-05-09T04:17:22.440Z,5.13
2024-05-09T04:19:53.168Z,5.68
2024-05-09T04:22:23.763Z,4.47
2024-05-09T04:24:54.796Z,5.45
2024-05-09T04:27:25.404Z,5.82
2024-05-09T04:29:56.076Z,4.63
2024-05-09T04:32:26.722Z,6.22
2024-05-09T04:34:57.496Z,3.88
2024-05-09T04:37:28.560Z,5.85
2024-05-09T04:39:59.730Z,5.97
2024-05-09T04:42:30.580Z,5.65
2024-05-09T04:45:00.987Z,5.40
2024-05-09T04:47:32.628Z,5.43
2024-05-09T04:50:03.601Z,4.28
2024-05-09T04:52:33.978Z,5.85
2024-05-09T04:55:04.558Z,6.88
2024-05-09T04:57:35.007Z,5.33
2024-05-09T05:00:09.437Z,4.68
2024-05-09T05:02:45.236Z,4.35
2024-05-09T05:05:15.931Z,4.55
2024-05-09T05:07:46.701Z,6.23
2024-05-09T05:10:25.105Z,5.65
2024-05-09T05:13:19.312Z,5.35
2024-05-09T05:15:53.323Z,6.55
2024-05-09T05:18:25.702Z,4.88
2024-05-09T05:20:58.062Z,8.77
2024-05-09T05:23:28.678Z,6.13
2024-05-09T05:25:59.105Z,6.13
2024-05-09T05:28:29.697Z,5.22
2024-05-09T05:31:00.361Z,6.10
2024-05-09T05:33:31.854Z,5.20
2024-05-09T05:36:02.694Z,4.63
2024-05-09T05:38:33.322Z,4.80
2024-05-09T05:41:04.007Z,3.47
2024-05-09T05:43:34.637Z,4.43
2024-05-09T05:46:05.440Z,6.82
2024-05-09T05:48:36.196Z,4.35
2024-05-09T05:51:08.019Z,6.53
2024-05-09T05:53:38.766Z,5.65
2024-05-09T05:56:10.143Z,8.38
2024-05-09T05:58:40.912Z,5.45
2024-05-09T06:01:11.526Z,6.72
2024-05-09T06:03:42.477Z,7.05
2024-05-09T06:06:15.586Z,4.93
2024-05-09T06:08:47.513Z,5.63
2024-05-09T06:11:18.316Z,7.57
2024-05-09T06:13:49.116Z,5.50
2024-05-09T06:16:19.482Z,7.68
2024-05-09T06:18:50.127Z,7.45
2024-05-09T06:21:21.166Z,9.00
2024-05-09T06:23:52.071Z,5.20
2024-05-09T06:26:23.786Z,8.27
2024-05-09T06:28:54.175Z,5.82
2024-05-09T06:31:24.582Z,5.80
2024-05-09T06:33:55.110Z,6.50
2024-05-09T06:36:25.579Z,6.07
2024-05-09T06:38:55.959Z,5.75
2024-05-09T06:41:29.369Z,5.55
2024-05-09T06:44:02.484Z,6.35
2024-05-09T06:46:33.745Z,5.70
2024-05-09T06:49:09.698Z,7.03
2024-05-09T06:51:40.682Z,8.27
2024-05-09T06:54:11.849Z,7.07
2024-05-09T06:56:42.380Z,7.27
2024-05-09T06:59:13.112Z,4.68
2024-05-09T07:01:45.122Z,4.73
2024-05-09T07:04:16.298Z,6.40
2024-05-09T07:06:47.051Z,5.32
2024-05-09T07:09:17.699Z,8.88
2024-05-09T07:11:48.328Z,5.25
2024-05-09T07:14:20.050Z,7.07
2024-05-09T07:16:50.992Z,4.93
2024-05-09T07:19:21.804Z,7.72
2024-05-09T07:21:53.437Z,5.75
2024-05-09T07:24:23.929Z,5.78
2024-05-09T07:26:54.767Z,6.35
2024-05-09T07:29:25.574Z,7.80
2024-05-09T07:31:56.750Z,5.90
2024-05-09T07:34:27.464Z,4.95
2024-05-09T07:36:58.537Z,6.43
2024-05-09T07:39:29.659Z,8.10
2024-05-09T07:42:00.158Z,6.78
2024-05-09T07:44:32.148Z,6.55
2024-05-09T07:54:43.026Z,6.15
2024-05-09T07:57:13.865Z,7.75
2024-05-09T07:59:44.438Z,11.07
2024-05-09T08:02:14.933Z,6.37
2024-05-09T08:04:45.665Z,7.53
2024-05-09T08:07:16.229Z,9.18
2024-05-09T08:09:48.209Z,6.43
2024-05-09T08:12:18.716Z,5.22
2024-05-09T08:14:50.353Z,7.03
2024-05-09T08:17:20.892Z,7.47
2024-05-09T08:19:51.606Z,7.88
2024-05-09T08:22:22.219Z,7.78
2024-05-09T08:24:52.744Z,10.70
2024-05-09T08:27:23.170Z,10.37
2024-05-09T08:29:53.699Z,7.10
2024-05-09T08:32:25.025Z,4.97
2024-05-09T08:34:55.957Z,6.53
2024-05-09T08:37:30.966Z,8.70
2024-05-09T08:40:08.465Z,7.55
2024-05-09T08:42:46.613Z,7.47
2024-05-09T08:45:18.442Z,9.57
2024-05-09T08:47:51.915Z,11.40
2024-05-09T08:50:32.183Z,9.17
2024-05-09T08:53:09.545Z,8.68
2024-05-09T08:55:42.650Z,6.28
2024-05-09T08:58:23.569Z,8.88
2024-05-09T09:00:54.764Z,9.32
2024-05-09T09:03:29.913Z,11.23
2024-05-09T09:06:04.473Z,12.03
2024-05-09T09:08:35.240Z,13.07
2024-05-09T09:11:06.646Z,9.63
2024-05-09T09:13:37.245Z,10.85
2024-05-09T09:16:08.716Z,12.82
2024-05-09T09:18:39.652Z,12.40
2024-05-09T09:21:13.218Z,11.00
2024-05-09T09:23:43.755Z,11.88
2024-05-09T09:26:18.614Z,13.73
2024-05-09T09:28:49.838Z,12.75
2024-05-09T09:31:21.817Z,10.75
2024-05-09T09:33:54.118Z,12.23
2024-05-09T09:36:24.746Z,10.35
2024-05-09T09:38:57.415Z,10.97
2024-05-09T09:41:32.277Z,11.67
2024-05-09T09:44:05.049Z,11.98
2024-05-09T09:46:36.467Z,12.50
2024-05-09T09:49:08.547Z,14.47
2024-05-09T09:51:45.135Z,12.50
2024-05-09T09:54:16.500Z,15.82
2024-05-09T09:56:50.186Z,14.40
2024-05-09T09:59:20.934Z,18.08
2024-05-09T10:01:51.659Z,16.75
2024-05-09T10:04:22.570Z,18.93
2024-05-09T10:07:01.088Z,17.90
2024-05-09T10:09:32.102Z,15.10
2024-05-09T10:12:12.528Z,17.60
2024-05-09T10:14:52.555Z,17.98
2024-05-09T10:17:23.236Z,17.33
2024-05-09T10:20:11.858Z,15.75
2024-05-09T10:22:52.176Z,17.05
2024-05-09T10:25:23.044Z,15.90
2024-05-09T10:28:00.196Z,19.75
2024-05-09T10:30:35.918Z,21.27
2024-05-09T10:33:13.196Z,16.83
2024-05-09T10:35:53.890Z,18.45
2024-05-09T10:38:31.568Z,20.83
2024-05-09T10:41:03.180Z,22.77
2024-05-09T10:43:33.828Z,20.17
2024-05-09T10:46:04.403Z,22.90
2024-05-09T10:48:35.157Z,21.40
2024-05-09T10:51:06.044Z,23.73
2024-05-09T10:53:44.354Z,20.50
2024-05-09T10:56:17.986Z,21.90
2024-05-09T10:58:48.645Z,20.47
2024-05-09T11:01:19.346Z,23.38
2024-05-09T11:03:54.501Z,23.50
2024-05-09T11:06:25.644Z,24.45
2024-05-09T11:08:56.587Z,24.50
2024-05-09T11:11:28.256Z,27.15
2024-05-09T11:13:58.940Z,22.40
2024-05-09T11:16:29.521Z,23.17
2024-05-09T11:19:01.296Z,25.75
2024-05-09T11:21:31.984Z,25.15
2024-05-09T11:24:03.169Z,24.48
2024-05-09T11:26:37.016Z,23.80
2024-05-09T11:29:07.795Z,24.48
2024-05-09T11:31:50.320Z,26.85
2024-05-09T11:34:20.892Z,25.23
2024-05-09T11:36:51.558Z,25.25
2024-05-09T11:39:22.226Z,29.58
2024-05-09T11:41:52.905Z,25.83
2024-05-09T11:44:23.493Z,20.85
2024-05-09T11:46:54.138Z,25.65
2024-05-09T11:49:26.840Z,22.63
2024-05-09T11:51:58.203Z,28.67
2024-05-09T11:54:28.963Z,26.20
2024-05-09T11:56:59.615Z,25.45
2024-05-09T11:59:29.920Z,30.52
2024-05-09T12:02:00.453Z,24.93
2024-05-09T12:04:31.436Z,24.13
2024-05-09T12:07:03.596Z,25.67
2024-05-09T12:09:35.984Z,29.13
2024-05-09T12:12:08.773Z,28.63
2024-05-09T12:14:40.037Z,23.10
2024-05-09T12:17:10.586Z,24.70
2024-05-09T12:19:42.333Z,25.77
2024-05-09T12:22:12.867Z,25.60
2024-05-09T12:24:43.407Z,27.30
2024-05-09T12:27:14.211Z,25.73
2024-05-09T12:29:45.177Z,23.52
2024-05-09T12:32:15.883Z,26.95
2024-05-09T12:34:46.567Z,26.88
2024-05-09T12:37:17.427Z,28.90
2024-05-09T12:39:48.488Z,27.77
2024-05-09T12:42:26.745Z,26.55
2024-05-09T12:44:58.606Z,31.85
2024-05-09T12:47:29.283Z,27.70
2024-05-09T12:50:00.185Z,32.40
2024-05-09T12:52:30.744Z,30.35
2024-05-09T12:55:01.321Z,28.67
2024-05-09T12:57:33.382Z,33.20
2024-05-09T13:00:04.194Z,35.30
2024-05-09T13:02:35.651Z,33.30
2024-05-09T13:05:06.413Z,34.27
2024-05-09T13:07:37.074Z,27.35
2024-05-09T13:10:13.899Z,34.25
2024-05-09T13:12:49.101Z,32.40
2024-05-09T13:15:20.281Z,34.10
2024-05-09T13:17:51.103Z,28.07
2024-05-09T13:20:28.728Z,33.58
2024-05-09T13:23:07.516Z,35.03
2024-05-09T13:25:39.354Z,35.28
2024-05-09T13:28:10.288Z,35.40
2024-05-09T13:30:42.224Z,35.33
2024-05-09T13:33:14.473Z,34.90
2024-05-09T13:35:49.643Z,38.03
2024-05-09T13:38:22.590Z,37.95
2024-05-09T13:40:53.495Z,34.00
2024-05-09T13:43:25.047Z,33.05
2024-05-09T13:45:58.162Z,34.27
2024-05-09T13:48:30.187Z,34.75
2024-05-09T13:51:00.977Z,34.47
2024-05-09T13:53:34.395Z,35.78
2024-05-09T13:56:06.317Z,36.47
2024-05-09T13:58:38.300Z,39.78
2024-05-09T14:01:09.170Z,34.53
2024-05-09T14:03:39.968Z,40.53
2024-05-09T14:06:13.072Z,33.60
2024-05-09T14:08:44.230Z,38.95
2024-05-09T14:11:14.918Z,39.13
2024-05-09T14:13:46.395Z,35.70
2024-05-09T14:16:16.973Z,38.85
2024-05-09T14:18:47.940Z,36.15
2024-05-09T14:21:19.217Z,38.30
2024-05-09T14:23:49.847Z,37.55
2024-05-09T14:26:21.101Z,36.93
2024-05-09T14:28:51.698Z,36.90
2024-05-09T14:31:23.434Z,35.97
2024-05-09T14:33:55.612Z,42.38
2024-05-09T14:36:26.656Z,33.25
2024-05-09T14:38:57.919Z,38.95
2024-05-09T14:41:28.706Z,33.38
2024-05-09T14:43:59.219Z,33.85
2024-05-09T14:46:30.805Z,33.13
2024-05-09T14:49:03.664Z,35.73
2024-05-09T14:51:34.798Z,37.03
2024-05-09T14:54:06.388Z,33.30
2024-05-09T14:56:37.384Z,33.70
2024-05-09T14:59:09.647Z,34.83
2024-05-09T15:01:41.485Z,35.13
2024-05-09T15:04:14.065Z,28.47
2024-05-09T15:06:45.109Z,33.70
2024-05-09T15:09:15.948Z,30.23
2024-05-09T15:11:47.803Z,32.38
2024-05-09T15:14:18.333Z,32.08
2024-05-09T15:16:50.554Z,29.10
2024-05-09T15:19:21.679Z,28.55
2024-05-09T15:21:52.561Z,29.50
2024-05-09T15:24:24.463Z,30.80
2024-05-09T15:26:55.063Z,27.85
2024-05-09T15:29:27.945Z,30.95
2024-05-09T15:31:59.706Z,26.17
2024-05-09T15:34:31.720Z,26.38
2024-05-09T15:37:03.274Z,24.02
2024-05-09T15:39:39.624Z,22.48
2024-05-09T15:42:10.276Z,25.17
2024-05-09T15:44:41.935Z,27.13
2024-05-09T15:47:13.804Z,25.92
2024-05-09T15:49:44.548Z,27.30
2024-05-09T15:52:17.186Z,28.60
2024-05-09T15:54:48.449Z,29.13
2024-05-09T15:57:20.163Z,25.00
2024-05-09T15:59:50.923Z,22.55
2024-05-09T16:02:21.903Z,25.27
2024-05-09T16:04:53.390Z,26.35
2024-05-09T16:07:24.347Z,25.73
2024-05-09T16:09:55.358Z,21.95
2024-05-09T16:12:27.203Z,22.90
2024-05-09T16:14:57.498Z,23.20
2024-05-09T16:17:28.869Z,22.83
2024-05-09T16:20:00.459Z,20.38
2024-05-09T16:22:31.275Z,17.90
2024-05-09T16:25:02.528Z,20.83
2024-05-09T16:27:33.491Z,17.58
2024-05-09T16:30:09.310Z,19.52
2024-05-09T16:32:46.152Z,21.90
2024-05-09T16:35:17.737Z,19.73
2024-05-09T16:37:49.383Z,18.20
2024-05-09T16:40:29.301Z,12.95
2024-05-09T16:43:09.059Z,15.98
2024-05-09T16:45:41.859Z,19.63
2024-05-09T16:48:14.155Z,20.52
2024-05-09T16:50:45.330Z,20.13
2024-05-09T16:53:15.933Z,31.52
2024-05-09T16:55:46.586Z,20.60
2024-05-09T16:58:19.501Z,14.40
2024-05-09T17:00:50.220Z,13.23
2024-05-09T17:03:22.994Z,12.50
2024-05-09T17:05:53.732Z,16.13
2024-05-09T17:08:24.585Z,15.15
2024-05-09T17:10:55.413Z,12.10
2024-05-09T17:13:29.742Z,12.15
2024-05-09T17:16:00.499Z,13.40
2024-05-09T17:18:31.182Z,12.48
2024-05-09T17:21:01.865Z,11.20
2024-05-09T17:23:35.044Z,13.57
2024-05-09T17:26:06.209Z,11.95
2024-05-09T17:28:37.965Z,14.52
2024-05-09T17:31:09.775Z,10.55
2024-05-09T17:33:40.658Z,10.77
2024-05-09T17:36:13.104Z,9.93
2024-05-09T17:38:43.964Z,9.02
2024-05-09T17:41:14.534Z,7.43
2024-05-09T17:43:45.292Z,8.23
2024-05-09T17:46:16.082Z,8.13
2024-05-09T17:48:46.913Z,6.28
2024-05-09T17:51:17.614Z,5.93
2024-05-09T17:53:49.558Z,8.85
2024-05-09T17:56:20.342Z,10.02
2024-05-09T17:58:51.009Z,6.53
2024-05-09T18:01:21.440Z,5.70
2024-05-09T18:03:52.137Z,5.32
2024-05-09T18:06:22.565Z,6.60
2024-05-09T18:08:53.139Z,6.70
2024-05-09T18:11:23.745Z,4.37
2024-05-09T18:13:55.966Z,5.22
2024-05-09T18:16:26.943Z,4.47
2024-05-09T18:18:57.895Z,4.32
2024-05-09T18:21:29.172Z,4.57
2024-05-09T18:24:01.072Z,3.95
2024-05-09T18:26:31.519Z,5.72
2024-05-09T18:29:02.253Z,4.93
2024-05-09T18:31:32.585Z,5.90
2024-05-09T18:34:03.425Z,7.15
2024-05-09T18:36:33.821Z,5.07
2024-05-09T18:39:04.914Z,5.72
2024-05-09T18:41:35.334Z,4.23
2024-05-09T18:44:06.426Z,5.63
2024-05-09T18:46:36.994Z,6.88
2024-05-09T18:49:07.891Z,6.38
2024-05-09T18:51:38.281Z,7.38
2024-05-09T18:54:08.763Z,4.97
2024-05-09T18:56:39.990Z,6.28
2024-05-09T18:59:10.327Z,6.33
2024-05-09T19:01:43.804Z,10.25
2024-05-09T19:04:14.890Z,7.65
2024-05-09T19:06:45.680Z,7.90
2024-05-09T19:09:16.332Z,11.40
2024-05-09T19:11:47.078Z,8.77
